Héctor Ríos

Olheiro - Cádiz
20 Fev 2028
Domingo
Processo

Personalidade

Adaptabilidade (4) Ambição (13) Controvérsia (11) Lealdade (15) Pressão (13) Profissionalismo (1) Espírito Esportivo (19) Temperamento (13)

Perfil

Estilo de Treinamento Democrático
Licença Continental C
Determinação 13
Gestão de Pessoas 4
Motivação 6
Disciplina 12
Satisfação no Trabalho
100%
Fadiga
0%
Função Olheiro
Salário 80.9K p/s
Contrato 14.03.2028

Desempenho

Comportamento Bom
Eficácia do Treinamento
35%
Desenvolvimento do Jogador
50%
Prevenção de Lesões
60%
Implementação Tática
45%

Eventos Recentes

Participou de uma reunião de recrutamento agora
Recomendou um alvo de transferência agora
Recomendou um alvo de transferência agora
Recomendou um alvo de transferência agora
Negociação de contrato iniciada agora
Negociação de contrato iniciada agora
Negociação de contrato iniciada agora
Negociação de contrato iniciada agora

Monitorando agora

136
Jogador Clube Status Habilidade Confiança Observado Última observação Último voto
Khalis Merah Toulouse FC Ativo 138 / 135 40% 2 31.01.2028 -
Héctor Fort Real Sociedad Ativo 140 / 152 40% 2 31.01.2028 -
Lucas Oviedo Ativo 117 / 113 51% 1 31.01.2028 -
Joel McGregor Swindon Town Ativo 104 / 99 40% 6 24.01.2028 -
Andrija Bulatović RC Lens Ativo 119 / 135 40% 1 24.01.2028 -
Jofre Torrents Ajax Ativo 142 / 144 40% 5 17.01.2028 -
Caleb Yirenkyi Coventry City Ativo 132 / 154 40% 3 03.01.2028 -
Agustín Obregón River Plate Ativo 118 / 113 40% 1 03.01.2028 -
José Paradela Tigres Negociando 137 / 137 89% 1 01.01.2028 Aprovar
Mao Hosoya Everton Negociando 134 / 135 90% 1 01.01.2028 -
Nicolás Fernández Mercau Independiente Ativo 134 / 134 67% 1 01.01.2028 Aprovar
Ángel Aguayo Sol de America Ativo 87 / 91 40% 2 31.12.2027 -
Tyson Pearce St. Louis CITY SC Ativo 93 / 110 40% 1 31.12.2027 -
Ronan Kpakio Cardiff City Ativo 117 / 123 40% 3 08.12.2027 -
Felipe Obradovich Ferro Carril Oeste Ativo 99 / 119 40% 2 08.12.2027 -
Samuel Posada Leones Ativo 93 / 93 40% 1 07.12.2027 -
Hervin Goyes Deportivo Pasto Ativo 106 / 115 40% 5 05.12.2027 -
Mauro Carrizo Atlético Tucumán Ativo 108 / 105 40% 3 05.12.2027 -
Marvelous Freedom Ikorodu City Ativo 105 / 94 40% 5 03.12.2027 -
Mikkel Hope Haugesund Ativo 92 / 94 40% 4 03.12.2027 -
Martín Jiménez Audax Italiano Ativo 110 / 103 40% 2 01.12.2027 -
Joel Ezra Enyimba Ativo 86 / 113 40% 5 30.11.2027 -
Bahia Criciuma Ativo 102 / 124 40% 3 24.11.2027 -
José Correa Deportivo Tachira Ativo 96 / 101 40% 2 23.11.2027 -
Diego Vargas San Marcos de Arica Ativo 85 / 100 40% 1 23.11.2027 -
Tiago Parente Benfica Ativo 98 / 122 40% 1 22.11.2027 -
Alejandro Almaraz Nueva Chicago Ativo 106 / 118 40% 1 22.11.2027 -
Jovan Milosavljević Kalmar FF Ativo 84 / 112 40% 2 16.11.2027 -
Santino Pasini Nea Salamis Ativo 97 / 97 40% 2 15.11.2027 -
Sebastián Ramírez Jaguares Ativo 115 / 108 40% 1 13.11.2027 -
Gift Udoh Ikorodu City Ativo 74 / 87 40% 2 09.11.2027 -
Olaniyi Saheed Kwara United Ativo 78 / 108 40% 1 09.11.2027 -
Luis Otávio Colorado Rapids Ativo 110 / 118 40% 1 08.11.2027 -
Celías Ingenthron Vélez Ativo 105 / 115 40% 1 04.11.2027 -
Giovanni Leoni Bradford City Ativo 139 / 154 40% 1 01.11.2027 -
Santiago Espíndola River Plate Ativo 117 / 114 40% 1 25.10.2027 -
Ignacio Fernández Boston River Ativo 103 / 106 40% 1 23.10.2027 -
Dominik Chong Qui Atlanta United FC Ativo 96 / 107 40% 2 22.10.2027 -
Archie Gray Derby County Ativo 142 / 154 40% 1 22.10.2027 -
Dmitry Pestryakov Dinamo Moscow Ativo 109 / 116 40% 1 19.10.2027 -
Ricky Atletico Venezuela Ativo 106 / 112 40% 2 18.10.2027 -
Jens Hjertø-Dahl Hull City Ativo 122 / 128 40% 2 18.10.2027 -
Thiago Helguera Braga Ativo 125 / 128 40% 1 10.10.2027 -
David Valencia Alianza Petrolera Ativo 115 / 140 40% 3 09.10.2027 -
Godwin Oham Warri Wolves Ativo 96 / 106 40% 1 09.10.2027 -
Muminhon Bahodirxonov Neftchi Ativo 83 / 104 40% 1 08.10.2027 -
Hosea Michael Remo Stars Ativo 84 / 83 40% 1 08.10.2027 -
Esteban de Lima Tacuarembo Ativo 100 / 107 40% 1 07.10.2027 -
Mads Bomholt Stabaek Ativo 116 / 124 40% 1 07.10.2027 -
Mohamed Bolivar Barranquilla Ativo 83 / 87 40% 1 30.08.2027 -
Ayden Heaven Luton Town Ativo 143 / 141 40% 1 30.08.2027 -
Théo Le Normand Andorra Ativo 115 / 98 51% 1 05.07.2027 -
Pedro de la Vega FC Dallas Ativo 133 / 134 66% 1 01.06.2027 Aprovar
Franculino Crystal Palace Negociando 136 / 140 67% 1 01.06.2027 -
Kevin Vazquez Cruz Azul Ativo 148 / 148 40% 9 30.05.2027 -
Alexandro Maidana Talleres Ativo 117 / 113 40% 1 30.05.2027 -
Martim Cunha Porto Ativo 104 / 103 40% 3 28.05.2027 -
Gonçalo Oliveira Benfica Ativo 107 / 125 40% 3 27.05.2027 -
Sascha Britschgi Padova Ativo 115 / 122 40% 1 26.05.2027 -
Leandro Martins Benfica Ativo 84 / 108 40% 1 22.05.2027 -
Tiago Freitas Benfica Ativo 103 / 115 40% 3 21.05.2027 -
Keagan Tau Ajax Cape Town Ativo 98 / 113 40% 2 14.05.2027 -
Jon Garro Real Sociedad Ativo 85 / 98 40% 2 13.05.2027 -
Davide Bartesaghi AC Milan Ativo 123 / 127 40% 2 09.05.2027 -
Finley McAllister Grimsby Town Ativo 80 / 102 40% 1 06.05.2027 -
Yusi Alavés Ativo 117 / 142 40% 3 05.05.2027 -
Jan Bürger Gillingham Ativo 114 / 112 40% 2 05.05.2027 -
Ernie Weaver AFC Wimbledon Ativo 110 / 108 40% 2 03.05.2027 -
Darryl Bakola Padova Ativo 96 / 119 40% 1 02.05.2027 -
Nazareno Kihm Ferro Carril Oeste Ativo 118 / 121 40% 1 30.04.2027 -
José Pachuca Puebla Ativo 95 / 124 40% 1 28.04.2027 -
Juan Giménez Celta Ativo 128 / 120 40% 1 24.04.2027 -
Noah Nartey Olympique Lyonnais Ativo 128 / 133 40% 3 22.04.2027 -
Josh King Chelsea Ativo 136 / 135 40% 3 21.04.2027 -
Daniel Vernattus Metalist Ativo 110 / 99 40% 1 21.04.2027 -
Christos Mouzakitis Hull City Ativo 130 / 146 40% 1 16.04.2027 -
Lucas Høgsberg RC Strasbourg Ativo 127 / 137 40% 1 14.04.2027 -
Zaïd BafdilI Sporting CP Ativo 93 / 110 40% 1 06.04.2027 -
Matías Gómez Granada Ativo 117 / 133 40% 1 05.04.2027 -
Dylan Lawlor Cardiff City Ativo 119 / 126 40% 1 02.04.2027 -
João Teixeira Porto Ativo 104 / 103 40% 1 01.04.2027 -
David Ozoh Derby County Ativo 117 / 131 40% 1 30.03.2027 -
Riley Owen Trento Ativo 110 / 117 40% 1 29.03.2027 -
James Dornelly Peterborough United Ativo 102 / 109 40% 2 28.03.2027 -
Toni Tamarit Alverca Ativo 127 / 119 40% 1 24.03.2027 -
Zane Albarus Cambridge United Ativo 98 / 91 40% 1 23.03.2027 -
Fidel Ambríz Monterrey Ativo 140 / 145 40% 1 11.01.2027 -
Thalys Almería Ativo 116 / 115 40% 5 29.12.2026 -
Ethan Galbraith Swansea City Ativo 125 / 139 40% 1 29.12.2026 -
Florentino Luís Ipswich Town Ativo 143 / 151 40% 1 29.12.2026 -
Ilaix Moriba Celta Ativo 153 / 156 40% 2 28.12.2026 -
Urko González Espanyol Ativo 142 / 130 40% 1 28.12.2026 -
Lwanda Mbanjwa Maritzburg United Ativo 95 / 96 40% 1 26.12.2026 -
Jones El-Abdellaoui Celta Ativo 133 / 131 40% 2 24.12.2026 -
Alejandro Balde Barcelona Ativo 151 / 150 40% 1 22.12.2026 -
Thiago Salischiker Rucci HNK Vukovar 1991 Ativo 78 / 88 40% 4 20.12.2026 -
Iván Martín Racing Santander Ativo 145 / 155 40% 1 16.12.2026 -
Noah Sadiki Sunderland Ativo 144 / 140 40% 1 16.12.2026 -
Anel Ahmedhodžić Burnley Ativo 134 / 127 40% 1 15.12.2026 -
Dom Ballard Leyton Orient Ativo 106 / 131 40% 5 12.12.2026 -
Róyner Benítez Aguilas Doradas Ativo 108 / 117 40% 3 11.12.2026 -
Maximo Ingravidi Colón Ativo 96 / 96 40% 1 11.12.2026 -
Josh Tymon Swansea City Ativo 129 / 130 40% 1 09.12.2026 -
Richard Ledezma Guadalajara Ativo 120 / 150 40% 1 09.12.2026 -
Deivid Washington RC Strasbourg Ativo 122 / 120 40% 1 09.12.2026 -
Amaury Morales Pumas UNAM Ativo 102 / 96 40% 1 08.12.2026 -
Christian Krasnodar Ativo 141 / 118 40% 2 07.12.2026 -
Will Lankshear Middlesbrough Ativo 135 / 132 40% 4 04.12.2026 -
Jonás Luna Santa Clara Ativo 128 / 127 40% 1 02.12.2026 -
Patrick Preciado Deportivo Pasto Ativo 103 / 111 40% 4 01.12.2026 -
Gavi Barcelona Ativo 149 / 174 40% 1 19.11.2026 -
Fran Beltrán Girona Ativo 150 / 145 40% 1 19.11.2026 -
Agustín Fernández NK Zavrc Ativo 103 / 102 40% 1 17.11.2026 -
Kauã Elias Anderlecht Ativo 140 / 143 40% 1 15.11.2026 -
Rocco Vata Watford Ativo 111 / 115 40% 1 11.11.2026 -
Brandon Márquez Sarmiento Ativo 87 / 97 40% 1 08.11.2026 -
Ramón Juárez Club America Ativo 151 / 122 40% 1 04.11.2026 -
Ilyas Ansah Hull City Ativo 132 / 122 40% 1 27.10.2026 -
Dilan Godoy Vélez Ativo 111 / 120 40% 2 22.10.2026 -
Archie Goodwin Charlotte Football Club Ativo 111 / 127 40% 1 22.10.2026 -
Dylan Cabral Arsenal Ativo 93 / 105 40% 1 15.10.2026 -
Youssoufa Moukoko FC Copenhagen Ativo 121 / 120 40% 1 14.10.2026 -
Iwan Morgan Grimsby Town Ativo 109 / 111 40% 1 14.10.2026 -
Jean Galindo Imotski Ativo 99 / 88 40% 1 12.10.2026 -
Luciano Inverso Rentistas Ativo 106 / 127 40% 1 09.10.2026 -
Kevin Álvarez Club America Ativo 122 / 147 40% 1 08.10.2026 -
Francisco Álvarez Argentinos Juniors Ativo 117 / 133 40% 1 08.10.2026 -
Mateo Mendoza Godoy Cruz Ativo 114 / 114 40% 1 07.10.2026 -
Franco Díaz Temperley Ativo 112 / 120 40% 1 07.10.2026 -
Bruno Méndez Toluca Ativo 130 / 120 40% 1 05.10.2026 -
Bruno Barrionuevo Godoy Cruz Ativo 92 / 95 40% 1 02.10.2026 -
Endrick Real Madrid Ativo 151 / 138 40% 1 15.09.2026 -
Leandro Córdoba Racing Ativo 92 / 103 40% 1 11.09.2026 -
Pablo Suárez Rentistas Ativo 83 / 93 40% 1 11.09.2026 -
Lucas Souto Defensa y Justicia Ativo 130 / 134 40% 1 09.09.2026 -
Jorge Cabello Levante Ativo 137 / 116 44% 1 24.08.2026 -